Preview of NWS' New Version of Forecast
This preview is not operational and should not be used for support decisions.

Terminal Aerodrome Forecast (TAF)

Issued by National Weather Service (NWS)

                            
000
FTUS42 KKEY 202026 AAB
TAFEYW
TAF AMD
KEYW 202026Z 2020/2118 35012KT P6SM FEW015 SCT025 BKN045
      TEMPO 2020/2022 SCT015 BKN025
     FM210300 01008KT P6SM FEW020 SCT040=